Al Lith, Saudi Arabia
Current Conditions -  °F | °C
As of 9:00 PM on Thursday 30 Oct 2014 (Local Time) from OEBA Reporting Station
Clear Clear  
Wind Chill: 70°   Ceiling: Unl
Heat Index: 70°   Visibility: 6mi
Dew Point: 52°   Wind: 5mph
Humidity: 53%   Direction: 250°WSW
Pressure: 30.12"   Gusts: NA
Location:  20.15°N, 40.27°E
Report Text: OEBA 301800Z 25004KT CAVOK 21/11 Q1020 NOSIG
Loading
Personal Weather Stations






























Interactive Weather Map
Tropical Storm Tracking
New forecast layout! Learn more

10-Day Weather Forecast

Advertisements
Track Severe Weather on mobile